Time;durP1;ratioP1;P1;durP2;ratioP2;P2;SDS_P1;SDS_P2;PMS_P1;PMS_P2;Temp;Humidity;BMP_temperature;BMP_pressure;BME280_temperature;BME280_humidity;BME280_pressure;Samples;Min_cycle;Max_cycle;Signal;HPM_P1;HPM_P2
2023/04/29 00:00:06;;;;;;;;;;;;;;;15.19;60.25;100681.78;4923190;29;20294;-85
2023/04/29 00:03:01;;;;;;;;;;;;;;;15.26;59.83;100683.94;4922883;29;19926;-84
2023/04/29 00:05:53;;;;;;;;;;;;;;;15.54;59.36;100697.69;4923706;29;19915;-84
2023/04/29 00:08:42;;;;;;;;;;;;;;;15.72;58.74;100688.81;4926890;29;19915;-83
2023/04/29 00:11:34;;;;;;;;;;;;;;;15.46;59.03;100680.19;4925600;29;19919;-84
2023/04/29 00:14:26;;;;;;;;;;;;;;;15.51;59.58;100655.31;4921930;29;19915;-84
2023/04/29 00:17:18;;;;;;;;;;;;;;;15.75;58.81;100662.63;4928846;29;19919;-83
2023/04/29 00:20:10;;;;;;;;;;;;;;;14.84;62.17;100656.06;4928399;29;19918;-84
2023/04/29 00:23:02;;;;;;;;;;;;;;;15.08;61.89;100655.22;4926322;29;19915;-84
2023/04/29 00:25:52;;;;;;;;;;;;;;;15.33;60.54;100652.06;4929394;29;19915;-83
2023/04/29 00:28:44;;;;;;;;;;;;;;;15.45;60.05;100653.13;4923682;29;19915;-83
2023/04/29 00:31:36;;;;;;;;;;;;;;;15.49;61.10;100659.53;4921469;29;19966;-82
2023/04/29 00:34:28;;;;;;;;;;;;;;;15.65;60.49;100652.16;4922749;29;19919;-82
2023/04/29 00:37:18;;;;;;;;;;;;;;;15.67;61.02;100660.84;4923398;29;19915;-84
2023/04/29 00:40:11;;;;;;;;;;;;;;;15.60;61.33;100660.63;4922479;29;20291;-84
2023/04/29 00:43:01;;;;;;;;;;;;;;;15.52;61.27;100669.81;4923535;29;19915;-83
2023/04/29 00:45:52;;;;;;;;;;;;;;;15.47;61.04;100665.34;4913785;29;19915;-83
2023/04/29 00:48:42;;;;;;;;;;;;;;;15.48;61.22;100653.25;4927657;29;19915;-83
2023/04/29 00:51:32;;;;;;;;;;;;;;;15.46;61.41;100676.66;4923837;29;19915;-84
2023/04/29 00:54:24;;;;;;;;;;;;;;;15.45;61.17;100669.59;4921458;29;19915;-84
2023/04/29 00:57:16;;;;;;;;;;;;;;;15.17;62.43;100658.63;4927929;29;20382;-84
2023/04/29 01:00:06;;;;;;;;;;;;;;;14.97;62.41;100660.38;4923976;29;19919;-84
2023/04/29 01:02:58;;;;;;;;;;;;;;;15.07;62.79;100659.09;4912916;29;19919;-84
2023/04/29 01:05:56;;;;;;;;;;;;;;;15.24;62.42;100658.81;4927801;29;19914;-84
2023/04/29 01:08:58;;;;;;;;;;;;;;;15.18;62.49;100655.53;4922102;29;19919;-84
2023/04/29 01:12:06;;;;;;;;;;;;;;;14.72;64.73;100656.09;4925342;29;19915;-83
2023/04/29 01:15:05;;;;;;;;;;;;;;;14.72;65.03;100653.38;4921094;29;19923;-84
2023/04/29 01:18:03;;;;;;;;;;;;;;;14.60;65.62;100648.69;4943434;29;20299;-83
2023/04/29 01:20:54;;;;;;;;;;;;;;;14.97;64.15;100650.25;4933786;29;19919;-82
2023/04/29 01:23:44;;;;;;;;;;;;;;;15.09;63.19;100652.13;4943055;29;19915;-83
2023/04/29 01:26:36;;;;;;;;;;;;;;;14.94;64.19;100655.59;4945793;23;19923;-80
2023/04/29 01:29:36;;;;;;;;;;;;;;;14.92;64.44;100650.47;4936706;29;20298;-80
2023/04/29 01:32:50;;;;;;;;;;;;;;;14.94;64.37;100663.81;4933732;29;19915;-79
2023/04/29 01:36:00;;;;;;;;;;;;;;;15.03;63.32;100659.00;4943456;29;19914;-83
2023/04/29 01:38:54;;;;;;;;;;;;;;;15.10;63.47;100655.66;4927245;29;19915;-82
2023/04/29 01:41:52;;;;;;;;;;;;;;;15.22;63.14;100650.97;4961375;28;19915;-81
2023/04/29 01:44:48;;;;;;;;;;;;;;;15.34;62.82;100639.94;4946427;29;20289;-82
2023/04/29 01:47:38;;;;;;;;;;;;;;;15.35;62.53;100649.75;4951907;29;19914;-81
2023/04/29 01:50:30;;;;;;;;;;;;;;;15.38;62.59;100642.78;4941830;28;20373;-82
2023/04/29 01:53:27;;;;;;;;;;;;;;;14.98;64.26;100626.38;4963114;28;19914;-80
2023/04/29 01:56:19;;;;;;;;;;;;;;;15.23;64.46;100635.31;4945220;29;19915;-80
2023/04/29 01:59:21;;;;;;;;;;;;;;;15.20;64.33;100625.03;4945886;29;19919;-81
2023/04/29 02:02:36;;;;;;;;;;;;;;;15.29;63.32;100628.44;4956335;29;19914;-83
2023/04/29 02:05:49;;;;;;;;;;;;;;;15.34;63.47;100642.69;4941996;29;19915;-83
2023/04/29 02:08:41;;;;;;;;;;;;;;;15.39;62.92;100638.88;4956155;28;20374;-81
2023/04/29 02:11:33;;;;;;;;;;;;;;;15.48;62.80;100636.81;4932159;29;20378;-81
2023/04/29 02:14:25;;;;;;;;;;;;;;;15.33;63.69;100632.88;4941521;29;20382;-80
2023/04/29 02:17:17;;;;;;;;;;;;;;;14.78;65.85;100628.13;4938896;29;19914;-79
2023/04/29 02:20:09;;;;;;;;;;;;;;;15.05;65.15;100623.03;4957725;28;19919;-80
2023/04/29 02:23:02;;;;;;;;;;;;;;;15.10;65.07;100620.06;4959053;28;19914;-80
2023/04/29 02:25:54;;;;;;;;;;;;;;;15.09;65.03;100635.69;4960145;28;19918;-79
2023/04/29 02:28:47;;;;;;;;;;;;;;;15.23;64.30;100654.50;4959445;28;19922;-80
2023/04/29 02:31:39;;;;;;;;;;;;;;;15.32;63.75;100647.72;4947844;29;19915;-82
2023/04/29 02:34:31;;;;;;;;;;;;;;;15.44;63.35;100613.19;4923426;29;19915;-81
2023/04/29 02:37:23;;;;;;;;;;;;;;;15.20;63.50;100594.91;4921160;29;20383;-81
2023/04/29 02:40:15;;;;;;;;;;;;;;;15.32;63.76;100606.63;4918585;29;19919;-78
2023/04/29 02:43:07;;;;;;;;;;;;;;;15.27;63.65;100609.63;4921451;29;19915;-80
2023/04/29 02:45:59;;;;;;;;;;;;;;;15.14;64.23;100605.31;4932375;29;20306;-81
2023/04/29 02:48:51;;;;;;;;;;;;;;;15.12;64.34;100601.34;4953887;28;19918;-80
2023/04/29 02:51:41;;;;;;;;;;;;;;;15.00;64.42;100626.81;4958733;28;19918;-81
2023/04/29 02:54:30;;;;;;;;;;;;;;;14.93;65.58;100635.63;4956598;28;20378;-80
2023/04/29 02:57:22;;;;;;;;;;;;;;;15.06;65.59;100646.56;4960009;28;19914;-81
2023/04/29 03:00:14;;;;;;;;;;;;;;;15.05;65.54;100648.50;4971421;28;19918;-82
2023/04/29 03:03:06;;;;;;;;;;;;;;;15.15;65.14;100658.97;4956965;28;19915;-80
2023/04/29 03:05:58;;;;;;;;;;;;;;;15.15;64.89;100660.91;4958937;28;19915;-79
2023/04/29 03:08:50;;;;;;;;;;;;;;;14.84;66.68;100656.06;4961625;28;19914;-81
2023/04/29 03:11:42;;;;;;;;;;;;;;;15.01;65.49;100649.53;4955434;28;19914;-81
2023/04/29 03:14:34;;;;;;;;;;;;;;;15.05;65.68;100640.28;4961404;28;20378;-80
2023/04/29 03:17:27;;;;;;;;;;;;;;;15.06;65.63;100628.19;4958404;28;19914;-82
2023/04/29 03:20:18;;;;;;;;;;;;;;;15.06;65.24;100619.16;4970068;28;20302;-81
2023/04/29 03:23:11;;;;;;;;;;;;;;;15.15;64.67;100631.56;4958661;28;19915;-80
2023/04/29 03:26:00;;;;;;;;;;;;;;;15.14;64.78;100627.22;4957339;28;19918;-80
2023/04/29 03:28:49;;;;;;;;;;;;;;;14.84;66.83;100626.75;4936766;29;19915;-81
2023/04/29 03:31:41;;;;;;;;;;;;;;;14.93;65.55;100641.09;4937469;29;19915;-81
2023/04/29 03:34:33;;;;;;;;;;;;;;;15.01;65.35;100649.53;4942494;29;19914;-82
2023/04/29 03:37:38;;;;;;;;;;;;;;;15.16;65.03;100651.53;4953211;28;19915;-82
2023/04/29 03:40:45;;;;;;;;;;;;;;;15.14;64.92;100654.63;4942157;29;19923;-83
2023/04/29 03:43:37;;;;;;;;;;;;;;;15.14;64.72;100643.66;4939740;29;20285;-80
2023/04/29 03:46:28;;;;;;;;;;;;;;;15.01;65.79;100631.16;4926482;29;19914;-79
2023/04/29 03:49:20;;;;;;;;;;;;;;;15.06;65.22;100635.59;4919753;29;19914;-82
2023/04/29 03:52:11;;;;;;;;;;;;;;;15.05;65.75;100626.59;4935101;29;19922;-81
2023/04/29 03:55:03;;;;;;;;;;;;;;;14.94;66.25;100628.22;4949357;28;20379;-81
2023/04/29 03:57:55;;;;;;;;;;;;;;;15.20;65.30;100631.31;4952524;28;19914;-79
2023/04/29 04:00:47;;;;;;;;;;;;;;;15.25;64.80;100622.84;4935978;29;19918;-82
2023/04/29 04:03:42;;;;;;;;;;;;;;;15.18;65.10;100624.63;4954076;28;19914;-82
2023/04/29 04:06:34;;;;;;;;;;;;;;;15.14;65.15;100631.91;4936427;29;20310;-81
2023/04/29 04:09:26;;;;;;;;;;;;;;;15.17;64.68;100625.75;4934973;29;19914;-81
2023/04/29 04:12:17;;;;;;;;;;;;;;;15.17;64.89;100632.03;4951426;28;19914;-80
2023/04/29 04:15:09;;;;;;;;;;;;;;;15.15;65.19;100637.03;4956880;28;20294;-80
2023/04/29 04:18:01;;;;;;;;;;;;;;;15.13;65.21;100655.00;4949781;28;20310;-81
2023/04/29 04:20:53;;;;;;;;;;;;;;;15.18;65.00;100641.84;4939070;29;19923;-80
2023/04/29 04:23:47;;;;;;;;;;;;;;;15.19;64.53;100642.63;4943664;29;19914;-81
2023/04/29 04:26:42;;;;;;;;;;;;;;;15.16;64.51;100644.13;4946175;29;19914;-81
2023/04/29 04:29:41;;;;;;;;;;;;;;;15.21;64.34;100638.41;4936912;29;19914;-80
2023/04/29 04:32:37;;;;;;;;;;;;;;;15.20;64.46;100628.59;4935228;29;20382;-80
2023/04/29 04:35:29;;;;;;;;;;;;;;;15.18;65.16;100636.38;4951065;28;20293;-81
2023/04/29 04:38:20;;;;;;;;;;;;;;;15.06;65.87;100641.88;4932529;29;19914;-81
2023/04/29 04:41:12;;;;;;;;;;;;;;;15.12;65.88;100659.66;4936263;29;19919;-81
2023/04/29 04:44:05;;;;;;;;;;;;;;;15.13;66.20;100650.31;4907026;29;19915;-80
2023/04/29 04:47:05;;;;;;;;;;;;;;;15.11;66.17;100655.31;4932007;29;19915;-81
2023/04/29 04:50:28;;;;;;;;;;;;;;;15.08;66.41;100649.75;4914435;29;19915;-80
2023/04/29 04:53:20;;;;;;;;;;;;;;;15.11;66.28;100649.84;4926782;28;20456;-79
2023/04/29 04:56:15;;;;;;;;;;;;;;;15.18;65.74;100639.13;4947353;28;19914;-79
2023/04/29 04:59:07;;;;;;;;;;;;;;;15.15;65.78;100636.25;4910302;29;19915;-82
2023/04/29 05:01:59;;;;;;;;;;;;;;;15.16;65.99;100646.88;4952566;28;19918;-81
2023/04/29 05:04:51;;;;;;;;;;;;;;;15.15;65.94;100641.72;4963500;28;19918;-81
2023/04/29 05:07:41;;;;;;;;;;;;;;;15.11;66.53;100644.38;4960123;28;19933;-81
2023/04/29 05:10:33;;;;;;;;;;;;;;;15.15;66.31;100645.25;4963167;28;19915;-81
2023/04/29 05:13:24;;;;;;;;;;;;;;;15.15;66.25;100653.47;4960036;28;19915;-81
2023/04/29 05:16:16;;;;;;;;;;;;;;;15.12;66.61;100656.94;4944747;29;19914;-81
2023/04/29 05:19:08;;;;;;;;;;;;;;;15.08;67.54;100650.56;4937444;28;19915;-80
2023/04/29 05:22:00;;;;;;;;;;;;;;;15.09;67.73;100645.84;4924798;29;19922;-80
2023/04/29 05:24:51;;;;;;;;;;;;;;;15.09;67.62;100645.84;4930826;28;19922;-80
2023/04/29 05:27:43;;;;;;;;;;;;;;;15.11;67.24;100652.59;4939999;28;19914;-80
2023/04/29 05:30:37;;;;;;;;;;;;;;;15.14;67.32;100654.63;4947737;28;19914;-80
2023/04/29 05:33:29;;;;;;;;;;;;;;;15.13;66.91;100658.53;4947305;28;20525;-80
2023/04/29 05:36:21;;;;;;;;;;;;;;;15.14;67.23;100659.28;4943242;29;19914;-79
2023/04/29 05:39:13;;;;;;;;;;;;;;;15.13;67.04;100663.22;4948756;28;20308;-81
2023/04/29 05:42:05;;;;;;;;;;;;;;;15.15;67.22;100667.19;4942487;28;19918;-81
2023/04/29 05:45:02;;;;;;;;;;;;;;;15.14;67.41;100662.84;4918082;28;20570;-82
2023/04/29 05:47:55;;;;;;;;;;;;;;;15.19;67.24;100665.34;4941975;28;19915;-81
2023/04/29 05:50:47;;;;;;;;;;;;;;;15.22;67.14;100667.41;4951630;28;19914;-79
2023/04/29 05:53:39;;;;;;;;;;;;;;;15.22;67.38;100672.88;4953895;28;19915;-79
2023/04/29 05:56:32;;;;;;;;;;;;;;;15.21;67.90;100675.94;4932845;29;20306;-81
2023/04/29 05:59:24;;;;;;;;;;;;;;;15.18;67.69;100673.91;4926756;29;19919;-79
2023/04/29 06:02:17;;;;;;;;;;;;;;;15.16;67.36;100678.94;4936305;29;19919;-77
2023/04/29 06:05:06;;;;;;;;;;;;;;;15.22;67.37;100685.78;4938225;29;19914;-80
2023/04/29 06:08:01;;;;;;;;;;;;;;;15.24;67.22;100684.25;4941107;29;19915;-79
2023/04/29 06:11:05;;;;;;;;;;;;;;;15.25;67.29;100687.81;4936109;29;20298;-81
2023/04/29 06:13:57;;;;;;;;;;;;;;;15.30;66.85;100699.31;4925391;29;19922;-80
2023/04/29 06:16:49;;;;;;;;;;;;;;;15.25;67.07;100696.03;4934618;29;19914;-82
2023/04/29 06:19:39;;;;;;;;;;;;;;;15.34;66.65;100688.47;4953169;28;19915;-83
2023/04/29 06:22:32;;;;;;;;;;;;;;;14.88;68.89;100684.38;4919838;29;19914;-75
2023/04/29 06:25:25;;;;;;;;;;;;;;;15.59;66.37;100697.44;4925233;29;19915;-76
2023/04/29 06:28:17;;;;;;;;;;;;;;;16.11;64.46;100691.78;4932678;29;19915;-75
2023/04/29 06:31:09;;;;;;;;;;;;;;;16.11;63.85;100700.81;4925295;29;19915;-76
2023/04/29 06:34:02;;;;;;;;;;;;;;;16.40;62.83;100693.31;4927425;29;19914;-76
2023/04/29 06:36:51;;;;;;;;;;;;;;;15.89;62.77;100692.38;4932505;29;19919;-76
2023/04/29 06:40:11;;;;;;;;;;;;;;;16.05;62.41;100691.22;4904702;29;19919;-75
2023/04/29 06:43:20;;;;;;;;;;;;;;;16.43;62.50;100692.59;4911324;29;20283;-75
2023/04/29 06:46:33;;;;;;;;;;;;;;;16.53;61.27;100700.28;4904670;29;19914;-75
2023/04/29 06:49:45;;;;;;;;;;;;;;;16.70;60.20;100705.44;4936132;29;20395;-75
2023/04/29 06:52:37;;;;;;;;;;;;;;;16.68;61.14;100702.25;4926850;29;20295;-76
2023/04/29 06:55:27;;;;;;;;;;;;;;;16.43;60.29;100687.91;4935144;28;20401;-74
2023/04/29 06:58:20;;;;;;;;;;;;;;;16.38;60.88;100676.38;4934110;29;20374;-76
2023/04/29 07:01:12;;;;;;;;;;;;;;;16.74;59.63;100678.06;4935137;28;20310;-76
2023/04/29 07:04:00;;;;;;;;;;;;;;;16.99;58.62;100682.16;4929096;29;19919;-78
2023/04/29 07:06:52;;;;;;;;;;;;;;;17.24;58.21;100685.44;4933089;29;20517;-77
2023/04/29 07:09:44;;;;;;;;;;;;;;;17.33;56.51;100691.50;4933844;29;20298;-76
2023/04/29 07:12:36;;;;;;;;;;;;;;;17.37;56.47;100681.41;4925535;28;19934;-77
2023/04/29 07:15:28;;;;;;;;;;;;;;;16.77;54.94;100682.81;4927883;28;19919;-76
2023/04/29 07:18:21;;;;;;;;;;;;;;;17.26;55.13;100683.13;4937686;28;19915;-75
2023/04/29 07:21:13;;;;;;;;;;;;;;;17.54;53.80;100680.97;4928717;29;19922;-76
2023/04/29 07:24:05;;;;;;;;;;;;;;;17.94;53.76;100688.81;4955380;28;20404;-76
2023/04/29 07:26:57;;;;;;;;;;;;;;;17.00;55.59;100679.06;4989851;23;19923;-78
2023/04/29 07:29:46;;;;;;;;;;;;;;;16.94;56.55;100682.44;4932718;29;19918;-79
2023/04/29 07:32:38;;;;;;;;;;;;;;;17.04;55.47;100688.16;4937248;29;19915;-79
2023/04/29 07:35:30;;;;;;;;;;;;;;;17.41;54.56;100698.78;4940516;28;20370;-77
2023/04/29 07:38:20;;;;;;;;;;;;;;;17.71;52.80;100697.06;4941272;29;19923;-79
2023/04/29 07:41:12;;;;;;;;;;;;;;;17.10;53.83;100694.97;4943726;28;19919;-77
2023/04/29 07:44:02;;;;;;;;;;;;;;;16.71;56.13;100698.78;4940836;28;19914;-78
2023/04/29 07:46:54;;;;;;;;;;;;;;;16.94;55.69;100696.97;4943293;28;19915;-78
2023/04/29 07:49:46;;;;;;;;;;;;;;;17.04;51.96;100701.09;4947079;28;19915;-77
2023/04/29 07:52:35;;;;;;;;;;;;;;;17.41;52.94;100718.00;4922260;29;19919;-78
2023/04/29 07:55:27;;;;;;;;;;;;;;;17.82;52.41;100722.81;4938442;29;19914;-77
2023/04/29 07:58:17;;;;;;;;;;;;;;;17.84;52.31;100727.94;4935582;29;19919;-78
2023/04/29 08:01:11;;;;;;;;;;;;;;;17.24;52.96;100726.66;4935185;28;19930;-79
2023/04/29 08:04:00;;;;;;;;;;;;;;;18.01;52.40;100741.25;4930150;29;19922;-79
2023/04/29 08:06:54;;;;;;;;;;;;;;;17.83;51.88;100738.13;4929156;29;19914;-79
2023/04/29 08:09:41;;;;;;;;;;;;;;;17.28;51.58;100731.06;4948328;28;19914;-76
2023/04/29 08:12:34;;;;;;;;;;;;;;;16.98;54.18;100736.31;4943326;29;19915;-79
2023/04/29 08:15:26;;;;;;;;;;;;;;;18.12;52.13;100730.44;4921829;29;19914;-78
2023/04/29 08:18:18;;;;;;;;;;;;;;;18.47;50.87;100735.78;4923156;29;19926;-77
2023/04/29 08:21:10;;;;;;;;;;;;;;;18.72;49.31;100737.78;4936191;29;19923;-79
2023/04/29 08:24:02;;;;;;;;;;;;;;;19.10;48.25;100736.78;4932000;29;19923;-78
2023/04/29 08:26:54;;;;;;;;;;;;;;;18.75;48.27;100742.56;4939945;28;19915;-78
2023/04/29 08:29:41;;;;;;;;;;;;;;;19.81;46.69;100745.22;4938014;28;19915;-79
2023/04/29 08:32:33;;;;;;;;;;;;;;;21.19;43.46;100741.75;4947575;28;19914;-79
2023/04/29 08:35:23;;;;;;;;;;;;;;;21.68;41.99;100743.97;4932138;28;20381;-80
2023/04/29 08:38:15;;;;;;;;;;;;;;;22.25;40.22;100744.13;4949055;28;20282;-79
2023/04/29 08:41:08;;;;;;;;;;;;;;;22.92;38.37;100752.50;4951627;28;19931;-79
2023/04/29 08:44:00;;;;;;;;;;;;;;;23.27;37.89;100745.28;4934901;28;19922;-79
2023/04/29 08:46:52;;;;;;;;;;;;;;;22.97;37.60;100738.22;4950493;28;19914;-78
2023/04/29 08:49:43;;;;;;;;;;;;;;;21.11;38.83;100736.53;4956946;28;20382;-79
2023/04/29 08:52:35;;;;;;;;;;;;;;;21.07;41.21;100744.81;4950049;29;19926;-78
2023/04/29 08:55:24;;;;;;;;;;;;;;;21.26;40.89;100741.00;4951118;28;19918;-78
2023/04/29 08:58:16;;;;;;;;;;;;;;;22.40;38.91;100748.50;4953092;29;19914;-79
2023/04/29 09:01:10;;;;;;;;;;;;;;;22.07;38.65;100744.13;4945531;29;19919;-75
2023/04/29 09:04:11;;;;;;;;;;;;;;;22.24;38.66;100737.03;4954845;29;20398;-77
2023/04/29 09:07:00;;;;;;;;;;;;;;;21.58;39.13;100736.44;4951283;28;19910;-77
2023/04/29 09:09:53;;;;;;;;;;;;;;;21.25;40.94;100740.22;4932609;29;19915;-77
2023/04/29 09:12:45;;;;;;;;;;;;;;;21.24;41.15;100735.84;4939655;29;20382;-78
2023/04/29 09:15:39;;;;;;;;;;;;;;;20.74;41.96;100733.91;4935017;29;19915;-79
2023/04/29 09:18:45;;;;;;;;;;;;;;;19.72;42.53;100737.22;4945449;29;20282;-78
2023/04/29 09:21:34;;;;;;;;;;;;;;;20.85;41.79;100732.03;4931840;29;19922;-79
2023/04/29 09:24:30;;;;;;;;;;;;;;;20.72;41.45;100739.03;4936100;29;19915;-79
2023/04/29 09:27:31;;;;;;;;;;;;;;;21.47;40.00;100729.25;4938280;29;19914;-76
2023/04/29 09:30:23;;;;;;;;;;;;;;;21.92;38.01;100731.38;4931058;29;19914;-76
2023/04/29 09:33:15;;;;;;;;;;;;;;;19.73;42.72;100721.47;4939083;29;19915;-77
2023/04/29 09:36:05;;;;;;;;;;;;;;;17.91;48.84;100728.88;4937288;29;19915;-76
2023/04/29 09:38:57;;;;;;;;;;;;;;;18.16;48.99;100725.78;4935827;29;19915;-79
2023/04/29 09:42:01;;;;;;;;;;;;;;;18.70;48.23;100715.31;4942403;29;19919;-78
2023/04/29 09:44:53;;;;;;;;;;;;;;;18.99;47.65;100715.75;4941100;29;19926;-78
2023/04/29 09:47:43;;;;;;;;;;;;;;;19.20;46.65;100714.06;4945507;29;19915;-79
2023/04/29 09:50:36;;;;;;;;;;;;;;;18.96;46.79;100713.72;4941622;29;19915;-78
2023/04/29 09:53:30;;;;;;;;;;;;;;;20.27;44.75;100699.53;4947847;29;19914;-79
2023/04/29 09:56:22;;;;;;;;;;;;;;;20.87;42.75;100691.78;4945517;29;19915;-77
2023/04/29 09:59:14;;;;;;;;;;;;;;;21.50;40.81;100689.72;4946403;29;19915;-77
2023/04/29 10:02:08;;;;;;;;;;;;;;;23.31;37.13;100701.69;4952732;28;19918;-79
2023/04/29 10:05:00;;;;;;;;;;;;;;;24.65;33.50;100706.44;4937275;28;19918;-76
2023/04/29 10:07:53;;;;;;;;;;;;;;;20.80;41.84;100707.50;4933158;29;19918;-79
2023/04/29 10:10:45;;;;;;;;;;;;;;;20.72;42.42;100700.34;4944939;28;19915;-80
2023/04/29 10:13:37;;;;;;;;;;;;;;;19.55;45.90;100693.69;4944082;28;19927;-79
2023/04/29 10:16:33;;;;;;;;;;;;;;;23.35;37.80;100705.25;4949526;29;19914;-79
2023/04/29 10:19:26;;;;;;;;;;;;;;;25.89;31.82;100696.72;4947617;29;20293;-79
2023/04/29 10:22:21;;;;;;;;;;;;;;;27.57;29.33;100698.19;4949901;28;19918;-79
2023/04/29 10:25:13;;;;;;;;;;;;;;;25.16;32.41;100699.19;4955305;28;19922;-79
2023/04/29 10:28:05;;;;;;;;;;;;;;;25.37;31.28;100707.31;4942051;29;19948;-79
2023/04/29 10:30:57;;;;;;;;;;;;;;;27.56;29.08;100707.78;4938880;29;19914;-77
2023/04/29 10:33:50;;;;;;;;;;;;;;;30.45;25.14;100705.97;4943046;28;19914;-79
2023/04/29 10:36:42;;;;;;;;;;;;;;;32.26;22.30;100702.94;4938508;28;19915;-76
2023/04/29 10:39:37;;;;;;;;;;;;;;;28.40;27.38;100701.47;4940572;29;19914;-78
2023/04/29 10:42:38;;;;;;;;;;;;;;;28.14;27.37;100697.69;4940776;28;19919;-75
2023/04/29 10:45:30;;;;;;;;;;;;;;;30.06;25.27;100688.41;4937594;29;19914;-76
2023/04/29 10:48:22;;;;;;;;;;;;;;;28.73;26.40;100683.44;4939944;28;19915;-77
2023/04/29 10:51:14;;;;;;;;;;;;;;;24.57;32.17;100671.56;4927250;28;19915;-77
2023/04/29 10:54:19;;;;;;;;;;;;;;;23.04;35.98;100665.31;4929317;29;19915;-76
2023/04/29 10:57:22;;;;;;;;;;;;;;;21.40;38.56;100671.91;4941258;28;20382;-78
2023/04/29 11:00:22;;;;;;;;;;;;;;;20.15;43.11;100665.91;4934823;28;19914;-77
2023/04/29 11:03:33;;;;;;;;;;;;;;;23.30;37.84;100656.50;4943548;28;19918;-78
2023/04/29 11:06:38;;;;;;;;;;;;;;;30.48;25.41;100669.41;4953951;28;19914;-78
2023/04/29 11:09:29;;;;;;;;;;;;;;;32.40;23.83;100664.97;4938728;28;19919;-77
2023/04/29 11:12:21;;;;;;;;;;;;;;;33.72;21.39;100664.28;4933919;29;19926;-82
2023/04/29 11:15:10;;;;;;;;;;;;;;;34.52;19.88;100672.03;4941606;28;19997;-79
2023/04/29 11:18:00;;;;;;;;;;;;;;;33.96;20.37;100669.97;4937301;29;19915;-79
2023/04/29 11:21:11;;;;;;;;;;;;;;;32.45;22.25;100670.00;4933425;29;19922;-79
2023/04/29 11:24:03;;;;;;;;;;;;;;;32.19;22.87;100652.56;4934738;28;19923;-78
2023/04/29 11:26:55;;;;;;;;;;;;;;;29.58;25.69;100658.63;4947487;28;19914;-76
2023/04/29 11:29:46;;;;;;;;;;;;;;;30.32;24.60;100649.09;4955685;28;20293;-78
2023/04/29 11:32:38;;;;;;;;;;;;;;;32.78;22.27;100656.88;4948381;28;20393;-76
2023/04/29 11:35:27;;;;;;;;;;;;;;;33.34;21.89;100661.25;4944479;28;19915;-80
2023/04/29 11:38:24;;;;;;;;;;;;;;;31.11;24.14;100659.97;4935611;29;19919;-78
2023/04/29 11:41:14;;;;;;;;;;;;;;;32.61;22.26;100661.25;4942784;29;19919;-80
2023/04/29 11:44:03;;;;;;;;;;;;;;;31.71;22.80;100654.09;4941564;28;20397;-78
2023/04/29 11:47:02;;;;;;;;;;;;;;;32.59;22.51;100653.25;4933074;28;19918;-78
2023/04/29 11:49:52;;;;;;;;;;;;;;;31.96;23.28;100653.88;4934853;29;19915;-78
2023/04/29 11:52:44;;;;;;;;;;;;;;;28.49;27.81;100651.28;4943296;29;19914;-79
2023/04/29 11:55:33;;;;;;;;;;;;;;;29.20;26.33;100649.34;4942143;29;19915;-78
2023/04/29 11:58:25;;;;;;;;;;;;;;;27.39;29.17;100641.84;4935091;29;19915;-77
2023/04/29 12:01:17;;;;;;;;;;;;;;;24.76;33.86;100644.34;4949328;28;19918;-77
2023/04/29 12:04:07;;;;;;;;;;;;;;;24.19;35.27;100645.69;4939387;29;19915;-76
2023/04/29 12:06:56;;;;;;;;;;;;;;;24.25;35.74;100635.72;4939932;29;20160;-78
2023/04/29 12:09:46;;;;;;;;;;;;;;;25.18;33.14;100634.78;4946489;28;19915;-78
2023/04/29 12:12:36;;;;;;;;;;;;;;;26.21;32.16;100643.22;4954842;28;19915;-79
2023/04/29 12:15:25;;;;;;;;;;;;;;;25.38;33.69;100630.94;4938323;29;19914;-79
2023/04/29 12:18:15;;;;;;;;;;;;;;;24.30;35.43;100631.69;4943108;29;19915;-80
2023/04/29 12:21:08;;;;;;;;;;;;;;;23.81;36.61;100630.88;4941718;29;19919;-78
2023/04/29 12:23:55;;;;;;;;;;;;;;;23.64;36.46;100626.22;4940914;29;19934;-76
2023/04/29 12:26:44;;;;;;;;;;;;;;;23.23;38.35;100633.53;4935752;29;19919;-78
2023/04/29 12:29:37;;;;;;;;;;;;;;;22.99;39.37;100630.47;4932272;29;19922;-79
2023/04/29 12:32:27;;;;;;;;;;;;;;;23.60;39.16;100631.00;4931310;28;20355;-78
2023/04/29 12:35:19;;;;;;;;;;;;;;;23.99;37.23;100629.94;4935318;29;19915;-80
2023/04/29 12:38:09;;;;;;;;;;;;;;;24.17;37.38;100614.75;4932444;29;19915;-77
2023/04/29 12:40:59;;;;;;;;;;;;;;;23.59;38.12;100615.53;4939848;28;19923;-78
2023/04/29 12:43:51;;;;;;;;;;;;;;;23.12;38.98;100613.34;4940843;28;19919;-78
2023/04/29 12:46:43;;;;;;;;;;;;;;;22.77;39.76;100603.97;4934143;28;19915;-76
2023/04/29 12:49:35;;;;;;;;;;;;;;;22.69;40.20;100594.06;4928921;29;19923;-78
2023/04/29 12:52:27;;;;;;;;;;;;;;;23.35;40.31;100586.69;4937647;29;19915;-79
2023/04/29 12:55:17;;;;;;;;;;;;;;;23.05;40.20;100589.22;4941454;29;20306;-78
2023/04/29 12:58:09;;;;;;;;;;;;;;;22.63;40.80;100583.78;4940072;29;20297;-76
2023/04/29 13:00:58;;;;;;;;;;;;;;;22.16;41.61;100580.28;4937765;29;19919;-76
2023/04/29 13:03:50;;;;;;;;;;;;;;;22.06;42.55;100583.88;4938602;29;19914;-77
2023/04/29 13:06:40;;;;;;;;;;;;;;;21.82;42.61;100577.13;4935415;29;20314;-79
2023/04/29 13:09:32;;;;;;;;;;;;;;;21.61;43.35;100564.03;4944864;29;19915;-79
2023/04/29 13:12:24;;;;;;;;;;;;;;;21.63;44.04;100558.13;4941736;29;19914;-77
2023/04/29 13:15:14;;;;;;;;;;;;;;;21.75;43.79;100560.50;4940116;29;19914;-79
2023/04/29 13:18:06;;;;;;;;;;;;;;;21.64;43.74;100562.44;4953157;28;19918;-77
2023/04/29 13:20:55;;;;;;;;;;;;;;;21.52;44.39;100565.63;4949341;28;19926;-78
2023/04/29 13:23:47;;;;;;;;;;;;;;;21.62;44.13;100554.56;4950588;29;19914;-78
2023/04/29 13:26:37;;;;;;;;;;;;;;;21.87;44.61;100562.09;4999423;23;20616;-76
2023/04/29 13:29:27;;;;;;;;;;;;;;;23.09;41.34;100562.25;4951956;28;19918;-76
2023/04/29 13:32:19;;;;;;;;;;;;;;;22.90;41.21;100559.97;4951829;28;19915;-77
2023/04/29 13:35:11;;;;;;;;;;;;;;;22.59;41.77;100564.41;4955758;28;19914;-76
2023/04/29 13:38:03;;;;;;;;;;;;;;;22.31;42.45;100550.59;4935179;28;19915;-77
2023/04/29 13:40:53;;;;;;;;;;;;;;;22.20;42.79;100555.38;4954341;28;19918;-76
2023/04/29 13:43:45;;;;;;;;;;;;;;;21.99;43.37;100551.41;4935881;28;19916;-77
2023/04/29 13:46:34;;;;;;;;;;;;;;;21.88;43.07;100544.28;4932045;29;19914;-77
2023/04/29 13:49:26;;;;;;;;;;;;;;;22.52;41.26;100547.78;4948841;28;20378;-76
2023/04/29 13:52:18;;;;;;;;;;;;;;;22.29;42.44;100536.38;4944047;28;19915;-76
2023/04/29 13:55:10;;;;;;;;;;;;;;;22.50;42.97;100539.84;4962302;28;19915;-77
2023/04/29 13:58:02;;;;;;;;;;;;;;;22.72;41.79;100540.63;4935614;29;19914;-76
2023/04/29 14:00:56;;;;;;;;;;;;;;;22.99;41.39;100535.34;4954273;29;19922;-77
2023/04/29 14:03:48;;;;;;;;;;;;;;;22.28;43.39;100534.78;4941734;28;19918;-76
2023/04/29 14:06:40;;;;;;;;;;;;;;;22.30;43.87;100537.94;4962537;28;19914;-77
2023/04/29 14:09:29;;;;;;;;;;;;;;;22.55;44.03;100539.44;4955552;28;20389;-77
2023/04/29 14:12:22;;;;;;;;;;;;;;;22.40;42.80;100540.69;4937620;28;19915;-77
2023/04/29 14:15:14;;;;;;;;;;;;;;;22.32;43.49;100532.78;4949178;28;19914;-77
2023/04/29 14:18:06;;;;;;;;;;;;;;;22.57;42.69;100531.53;4942915;29;19922;-77
2023/04/29 14:20:58;;;;;;;;;;;;;;;22.16;43.68;100528.47;4946528;28;19914;-78
2023/04/29 14:23:50;;;;;;;;;;;;;;;22.20;45.63;100522.91;4933526;28;19919;-82
2023/04/29 14:26:40;;;;;;;;;;;;;;;22.21;44.60;100523.69;4945830;28;19915;-82
2023/04/29 14:29:32;;;;;;;;;;;;;;;22.23;44.59;100524.91;4941894;29;19918;-81
2023/04/29 14:32:21;;;;;;;;;;;;;;;22.20;44.48;100524.91;4947796;29;20301;-81
2023/04/29 14:35:14;;;;;;;;;;;;;;;22.15;44.34;100518.56;4957992;28;19918;-80
2023/04/29 14:38:06;;;;;;;;;;;;;;;22.03;44.94;100519.00;4946069;29;19914;-81
2023/04/29 14:40:58;;;;;;;;;;;;;;;21.94;45.12;100521.34;4949510;29;19914;-81
2023/04/29 14:43:50;;;;;;;;;;;;;;;21.99;45.01;100523.72;4963375;28;19922;-82
2023/04/29 14:46:42;;;;;;;;;;;;;;;21.96;45.34;100529.28;4921117;29;19919;-78